Terminal Aerodrome Forecast
Issued by NWS

Home | Current Version | Previous Version | Text Only | Print | Product List | Glossary On
Versions: 1 2 3 4 5 6 7 8 9 10 11 12 13 14 15 16 17 18 19
000
FTUS46 KMFR 241143
TAFRBG
TAF
KRBG 241143Z 2412/2512 19003KT P6SM -RA OVC060
     FM241500 17004KT P6SM -SHRA BKN025 OVC035
     FM242000 19008KT P6SM -SHRA SCT025 OVC040
     FM250300 00000KT P6SM -SHRA SCT025 BKN035=

USA.gov is the U.S. government's official web portal to all federal, state and local government web resources and services.